createdAt,value
2023-04-09T00:04:46.862Z,35.47
2023-04-09T00:09:49.713Z,36.30
2023-04-09T00:14:53.646Z,43.00
2023-04-09T00:19:56.276Z,40.85
2023-04-09T00:24:59.610Z,37.57
2023-04-09T00:30:03.527Z,35.08
2023-04-09T00:35:06.951Z,39.35
2023-04-09T00:45:13.855Z,39.15
2023-04-09T00:50:17.738Z,41.15
2023-04-09T00:55:22.294Z,41.17
2023-04-09T01:00:27.646Z,46.45
2023-04-09T01:05:44.882Z,43.85
2023-04-09T01:10:55.259Z,41.58
2023-04-09T01:16:02.987Z,40.55
2023-04-09T01:21:10.870Z,41.88
2023-04-09T01:26:23.698Z,38.53
2023-04-09T01:31:31.757Z,43.15
2023-04-09T01:36:36.747Z,39.92
2023-04-09T01:41:41.315Z,37.30
2023-04-09T01:46:47.691Z,37.78
2023-04-09T01:51:51.200Z,40.83
2023-04-09T02:02:02.363Z,39.05
2023-04-09T02:07:11.100Z,36.65
2023-04-09T02:12:17.440Z,36.85
2023-04-09T02:17:21.565Z,38.40
2023-04-09T02:22:24.265Z,38.03
2023-04-09T02:27:26.843Z,36.37
2023-04-09T02:32:30.932Z,38.13
2023-04-09T02:37:33.537Z,35.83
2023-04-09T02:42:36.097Z,42.97
2023-04-09T02:47:40.203Z,39.57
2023-04-09T02:52:42.765Z,39.78
2023-04-09T02:57:45.636Z,36.58
2023-04-09T03:02:49.715Z,37.28
2023-04-09T03:07:52.397Z,34.95
2023-04-09T03:12:54.984Z,32.60
2023-04-09T03:17:59.056Z,34.50
2023-04-09T03:23:01.676Z,38.50
2023-04-09T03:28:04.504Z,35.83
2023-04-09T03:33:08.507Z,33.60
2023-04-09T03:38:11.281Z,32.70
2023-04-09T03:43:13.916Z,34.70
2023-04-09T03:48:17.913Z,34.50
2023-04-09T03:53:20.507Z,34.97
2023-04-09T03:58:23.058Z,33.07
2023-04-09T04:03:27.187Z,34.87
2023-04-09T04:08:30.106Z,30.52
2023-04-09T04:13:32.751Z,37.83
2023-04-09T04:18:36.725Z,32.57
2023-04-09T04:23:39.256Z,34.80
2023-04-09T04:28:42.077Z,35.20
2023-04-09T04:33:46.022Z,33.03
2023-04-09T04:38:48.647Z,34.35
2023-04-09T04:43:51.256Z,33.50
2023-04-09T04:48:55.245Z,35.07
2023-04-09T04:53:57.843Z,34.40
2023-04-09T04:59:01.554Z,37.60
2023-04-09T05:04:05.588Z,37.00
2023-04-09T05:09:08.201Z,41.88
2023-04-09T05:14:10.906Z,42.38
2023-04-09T05:19:14.820Z,43.07
2023-04-09T05:24:17.411Z,38.33
2023-04-09T05:29:21.139Z,43.20
2023-04-09T05:34:25.220Z,43.00
2023-04-09T05:39:27.773Z,43.13
2023-04-09T05:44:30.584Z,47.20
2023-04-09T05:49:34.655Z,41.47
2023-04-09T05:54:37.286Z,40.53
2023-04-09T05:59:39.938Z,43.13
2023-04-09T06:04:43.943Z,42.10
2023-04-09T06:09:46.876Z,39.13
2023-04-09T06:14:49.626Z,35.88
2023-04-09T06:19:54.775Z,42.00
2023-04-09T06:24:57.310Z,42.28
2023-04-09T06:29:59.856Z,42.95
2023-04-09T06:35:03.837Z,35.15
2023-04-09T06:40:08.075Z,31.98
2023-04-09T06:45:12.053Z,33.15
2023-04-09T06:50:16.236Z,31.77
2023-04-09T06:55:19.364Z,32.90
2023-04-09T07:05:27.062Z,27.23
2023-04-09T07:10:30.156Z,29.77
2023-04-09T07:15:32.924Z,30.25
2023-04-09T07:20:36.895Z,29.67
2023-04-09T07:25:39.514Z,30.15
2023-04-09T07:30:42.202Z,29.85
2023-04-09T07:35:46.961Z,28.30
2023-04-09T07:40:49.650Z,29.15
2023-04-09T07:45:52.524Z,29.80
2023-04-09T07:55:59.419Z,30.10
2023-04-09T08:01:02.050Z,25.15
2023-04-09T08:06:06.620Z,27.08
2023-04-09T08:11:09.260Z,25.27
2023-04-09T08:16:11.840Z,26.33
2023-04-09T08:21:15.853Z,26.00
2023-04-09T08:26:18.651Z,28.42
2023-04-09T08:31:21.561Z,28.38
2023-04-09T08:41:30.542Z,26.17
2023-04-09T08:46:37.169Z,27.00
2023-04-09T08:51:46.432Z,23.42
2023-04-09T08:56:49.134Z,23.38
2023-04-09T09:02:07.940Z,22.23
2023-04-09T09:07:12.067Z,19.10
2023-04-09T09:12:32.298Z,18.70
2023-04-09T09:17:53.915Z,21.17
2023-04-09T09:22:57.958Z,19.95
2023-04-09T09:28:09.387Z,19.50
2023-04-09T09:33:13.099Z,19.00
2023-04-09T09:38:17.214Z,15.80
2023-04-09T09:43:20.038Z,17.08
2023-04-09T09:48:22.633Z,19.35
2023-04-09T09:53:27.415Z,16.67
2023-04-09T09:58:37.013Z,15.73
2023-04-09T10:03:41.061Z,15.15
2023-04-09T10:08:47.275Z,14.23
2023-04-09T10:13:54.199Z,15.68
2023-04-09T10:18:58.341Z,14.30
2023-04-09T10:24:05.843Z,13.63
2023-04-09T10:29:13.778Z,12.40
2023-04-09T10:34:17.654Z,13.15
2023-04-09T10:39:22.813Z,12.20
2023-04-09T10:44:27.410Z,11.20
2023-04-09T10:49:37.412Z,9.70
2023-04-09T10:54:49.284Z,11.60
2023-04-09T10:59:53.310Z,11.15
2023-04-09T11:05:07.240Z,14.80
2023-04-09T11:10:11.604Z,10.38
2023-04-09T11:15:17.280Z,11.65
2023-04-09T11:20:22.344Z,10.82
2023-04-09T11:25:28.504Z,8.52
2023-04-09T11:30:31.207Z,8.23
2023-04-09T11:40:47.677Z,11.13
2023-04-09T11:45:50.616Z,9.93
2023-04-09T11:50:53.769Z,11.25
2023-04-09T11:55:57.949Z,10.15
2023-04-09T12:01:01.727Z,9.32
2023-04-09T12:06:07.730Z,10.85
2023-04-09T12:11:13.181Z,10.65
2023-04-09T12:16:20.539Z,12.43
2023-04-09T12:21:26.075Z,9.75
2023-04-09T12:26:30.028Z,10.15
2023-04-09T12:31:32.671Z,9.68
2023-04-09T12:36:35.333Z,10.65
2023-04-09T12:41:39.314Z,10.02
2023-04-09T12:46:42.208Z,10.77
2023-04-09T12:56:50.063Z,9.10
2023-04-09T13:01:52.707Z,10.82
2023-04-09T13:06:55.506Z,10.32
2023-04-09T13:11:59.465Z,11.57
2023-04-09T13:17:02.231Z,9.43
2023-04-09T13:27:11.889Z,11.25
2023-04-09T13:32:14.536Z,10.85
2023-04-09T13:37:17.327Z,9.50
2023-04-09T13:42:21.232Z,10.05
2023-04-09T13:47:24.231Z,10.88
2023-04-09T13:52:29.677Z,9.15
2023-04-09T13:57:33.867Z,18.52
2023-04-09T14:02:36.562Z,10.70
2023-04-09T14:07:39.197Z,10.35
2023-04-09T14:12:44.139Z,11.32
2023-04-09T14:17:46.746Z,9.02
2023-04-09T14:22:49.521Z,10.05
2023-04-09T14:32:55.951Z,8.82
2023-04-09T14:37:58.609Z,9.00
2023-04-09T14:43:02.570Z,10.27
2023-04-09T14:48:05.859Z,10.95
2023-04-09T14:53:08.424Z,11.00
2023-04-09T14:58:12.326Z,10.23
2023-04-09T15:03:15.087Z,10.43
2023-04-09T15:13:22.695Z,10.70
2023-04-09T15:18:25.295Z,14.15
2023-04-09T15:23:27.958Z,8.63
2023-04-09T15:28:31.928Z,8.38
2023-04-09T15:33:34.546Z,8.48
2023-04-09T15:38:37.160Z,8.25
2023-04-09T15:43:41.135Z,8.43
2023-04-09T15:48:43.887Z,11.48
2023-04-09T15:53:46.432Z,9.60
2023-04-09T15:58:50.530Z,9.23
2023-04-09T16:03:53.164Z,7.30
2023-04-09T16:08:56.528Z,10.27
2023-04-09T16:14:00.596Z,14.57
2023-04-09T16:19:03.123Z,11.02
2023-04-09T16:24:05.897Z,9.15
2023-04-09T16:34:13.363Z,10.02
2023-04-09T16:39:16.254Z,7.97
2023-04-09T16:49:22.760Z,8.07
2023-04-09T16:54:25.375Z,8.13
2023-04-09T16:59:29.287Z,11.35
2023-04-09T17:04:34.448Z,8.38
2023-04-09T17:09:37.185Z,10.75
2023-04-09T17:14:41.959Z,10.30
2023-04-09T17:19:44.568Z,9.10
2023-04-09T17:24:47.315Z,10.35
2023-04-09T17:29:51.775Z,11.43
2023-04-09T17:34:54.482Z,11.10
2023-04-09T17:39:57.099Z,9.45
2023-04-09T17:45:01.103Z,11.55
2023-04-09T17:50:04.338Z,11.50
2023-04-09T18:00:12.851Z,10.90
2023-04-09T18:05:15.645Z,11.35
2023-04-09T18:10:18.438Z,12.20
2023-04-09T18:15:23.495Z,14.93
2023-04-09T18:20:26.271Z,17.23
2023-04-09T18:25:28.819Z,14.82
2023-04-09T18:30:32.713Z,18.47
2023-04-09T18:35:35.553Z,19.58
2023-04-09T18:40:41.782Z,18.63
2023-04-09T18:45:45.694Z,23.02
2023-04-09T18:50:48.302Z,21.50
2023-04-09T18:55:50.870Z,29.53
2023-04-09T19:00:55.357Z,32.80
2023-04-09T19:05:59.670Z,37.97
2023-04-09T19:11:02.269Z,48.05
2023-04-09T19:16:09.046Z,51.13
2023-04-09T19:21:11.748Z,46.20
2023-04-09T19:26:14.421Z,44.10
2023-04-09T19:31:18.660Z,37.33
2023-04-09T19:36:22.587Z,37.88
2023-04-09T19:41:25.262Z,46.25
2023-04-09T19:46:29.364Z,48.00
2023-04-09T19:51:32.617Z,38.22
2023-04-09T19:56:35.176Z,44.13
2023-04-09T20:01:39.133Z,43.05
2023-04-09T20:06:43.709Z,44.92
2023-04-09T20:11:46.614Z,56.28
2023-04-09T20:16:50.603Z,53.25
2023-04-09T20:21:54.811Z,57.83
2023-04-09T20:26:59.342Z,58.53
2023-04-09T20:32:03.452Z,64.70
2023-04-09T20:37:06.667Z,65.28
2023-04-09T20:42:09.243Z,63.05
2023-04-09T20:47:13.488Z,66.83
2023-04-09T20:52:16.665Z,58.58
2023-04-09T20:57:19.200Z,69.75
2023-04-09T21:02:23.665Z,65.90
2023-04-09T21:07:26.400Z,58.80
2023-04-09T21:12:30.025Z,54.70
2023-04-09T21:22:36.419Z,63.95
2023-04-09T21:27:38.970Z,68.28
2023-04-09T21:32:43.060Z,69.18
2023-04-09T21:37:45.970Z,61.63
2023-04-09T21:42:48.525Z,58.70
2023-04-09T21:47:52.558Z,60.30
2023-04-09T21:52:55.296Z,59.97
2023-04-09T21:57:57.955Z,58.43
2023-04-09T22:03:02.209Z,55.57
2023-04-09T22:08:04.954Z,52.63
2023-04-09T22:13:07.992Z,52.27
2023-04-09T22:18:11.934Z,54.60
2023-04-09T22:23:14.511Z,54.97
2023-04-09T22:28:17.127Z,51.90
2023-04-09T22:33:21.136Z,49.72
2023-04-09T22:38:23.742Z,58.53
2023-04-09T22:43:26.424Z,54.17
2023-04-09T22:48:30.867Z,56.20
2023-04-09T22:53:33.469Z,50.30
2023-04-09T22:58:36.356Z,55.63
2023-04-09T23:03:40.321Z,51.20
2023-04-09T23:08:42.912Z,51.60
2023-04-09T23:13:45.740Z,50.08
2023-04-09T23:18:49.692Z,49.30
2023-04-09T23:23:52.620Z,49.20
2023-04-09T23:28:55.697Z,48.60
2023-04-09T23:33:59.737Z,46.27
2023-04-09T23:39:02.507Z,46.83
2023-04-09T23:44:05.370Z,45.43
2023-04-09T23:49:09.276Z,43.53
2023-04-09T23:54:11.847Z,47.15
2023-04-09T23:59:14.417Z,46.60
